sensor_id;sensor_type;location;lat;lon;timestamp;pressure;altitude;pressure_sealevel;temperature;humidity
75221;BME280;63802;53.232;6.570;2023-03-23T00:02:28;100099.66;;;9.48;98.09
75221;BME280;63802;53.232;6.570;2023-03-23T00:04:54;100096.56;;;9.53;98.06
75221;BME280;63802;53.232;6.570;2023-03-23T00:07:23;100104.38;;;9.54;98.36
75221;BME280;63802;53.232;6.570;2023-03-23T00:09:53;100109.88;;;9.58;98.46
75221;BME280;63802;53.232;6.570;2023-03-23T00:12:27;100109.47;;;9.56;98.05
75221;BME280;63802;53.232;6.570;2023-03-23T00:15:04;100118.03;;;9.58;98.19
75221;BME280;63802;53.232;6.570;2023-03-23T00:17:30;100118.88;;;9.62;98.33
75221;BME280;63802;53.232;6.570;2023-03-23T00:19:59;100112.91;;;9.53;98.41
75221;BME280;63802;53.232;6.570;2023-03-23T00:22:27;100124.66;;;9.57;98.18
75221;BME280;63802;53.232;6.570;2023-03-23T00:24:52;100127.66;;;9.48;98.47
75221;BME280;63802;53.232;6.570;2023-03-23T00:27:19;100115.91;;;9.40;98.09
75221;BME280;63802;53.232;6.570;2023-03-23T00:29:49;100120.53;;;9.36;98.43
75221;BME280;63802;53.232;6.570;2023-03-23T00:32:19;100111.63;;;9.39;98.56
75221;BME280;63802;53.232;6.570;2023-03-23T00:34:46;100112.41;;;9.40;98.47
75221;BME280;63802;53.232;6.570;2023-03-23T00:37:14;100106.50;;;9.34;98.41
75221;BME280;63802;53.232;6.570;2023-03-23T00:39:42;100108.16;;;9.42;98.67
75221;BME280;63802;53.232;6.570;2023-03-23T00:42:10;100094.78;;;9.30;98.56
75221;BME280;63802;53.232;6.570;2023-03-23T00:44:37;100089.75;;;9.32;98.53
75221;BME280;63802;53.232;6.570;2023-03-23T00:47:05;100092.22;;;9.44;98.51
75221;BME280;63802;53.232;6.570;2023-03-23T00:49:32;100078.53;;;9.37;98.44
75221;BME280;63802;53.232;6.570;2023-03-23T00:52:00;100110.16;;;9.49;98.39
75221;BME280;63802;53.232;6.570;2023-03-23T00:54:25;100108.66;;;9.55;98.81
75221;BME280;63802;53.232;6.570;2023-03-23T00:56:52;100110.56;;;9.51;98.89
75221;BME280;63802;53.232;6.570;2023-03-23T00:59:21;100096.69;;;9.60;98.75
75221;BME280;63802;53.232;6.570;2023-03-23T01:01:47;100108.22;;;9.50;98.97
75221;BME280;63802;53.232;6.570;2023-03-23T01:04:14;100098.97;;;9.58;98.98
75221;BME280;63802;53.232;6.570;2023-03-23T01:06:41;100078.34;;;9.57;98.87
75221;BME280;63802;53.232;6.570;2023-03-23T01:09:09;100089.78;;;9.73;99.16
75221;BME280;63802;53.232;6.570;2023-03-23T01:11:36;100097.50;;;9.64;98.68
75221;BME280;63802;53.232;6.570;2023-03-23T01:14:02;100096.63;;;9.56;98.80
75221;BME280;63802;53.232;6.570;2023-03-23T01:16:28;100073.19;;;9.48;98.89
75221;BME280;63802;53.232;6.570;2023-03-23T01:18:53;100073.91;;;9.41;98.66
75221;BME280;63802;53.232;6.570;2023-03-23T01:21:20;100063.00;;;9.38;98.48
75221;BME280;63802;53.232;6.570;2023-03-23T01:23:46;100028.13;;;9.17;98.44
75221;BME280;63802;53.232;6.570;2023-03-23T01:26:14;100017.56;;;9.09;98.34
75221;BME280;63802;53.232;6.570;2023-03-23T01:28:40;100037.09;;;9.21;98.13
75221;BME280;63802;53.232;6.570;2023-03-23T01:31:08;100032.09;;;9.23;97.87
75221;BME280;63802;53.232;6.570;2023-03-23T01:33:37;100030.13;;;9.20;98.04
75221;BME280;63802;53.232;6.570;2023-03-23T01:36:05;100032.84;;;9.20;97.80
75221;BME280;63802;53.232;6.570;2023-03-23T01:38:31;100029.31;;;9.20;97.70
75221;BME280;63802;53.232;6.570;2023-03-23T01:40:57;100000.06;;;9.10;97.89
75221;BME280;63802;53.232;6.570;2023-03-23T01:43:23;100011.53;;;9.26;97.74
75221;BME280;63802;53.232;6.570;2023-03-23T01:45:48;99998.38;;;9.35;97.52
75221;BME280;63802;53.232;6.570;2023-03-23T01:48:23;100017.25;;;9.58;97.69
75221;BME280;63802;53.232;6.570;2023-03-23T01:50:52;100018.84;;;9.62;97.76
75221;BME280;63802;53.232;6.570;2023-03-23T01:53:20;100007.94;;;9.59;97.61
75221;BME280;63802;53.232;6.570;2023-03-23T01:55:49;99992.81;;;9.65;97.54
75221;BME280;63802;53.232;6.570;2023-03-23T01:58:19;100013.22;;;9.85;97.50
75221;BME280;63802;53.232;6.570;2023-03-23T02:00:46;100007.44;;;9.90;97.25
75221;BME280;63802;53.232;6.570;2023-03-23T02:03:14;100000.06;;;9.94;97.48
75221;BME280;63802;53.232;6.570;2023-03-23T02:05:41;100003.59;;;9.98;96.98
75221;BME280;63802;53.232;6.570;2023-03-23T02:08:08;100004.41;;;10.02;97.15
75221;BME280;63802;53.232;6.570;2023-03-23T02:10:35;99980.97;;;9.94;96.78
75221;BME280;63802;53.232;6.570;2023-03-23T02:13:03;99976.81;;;10.07;96.82
75221;BME280;63802;53.232;6.570;2023-03-23T02:27:14;99982.38;;;10.21;96.14
75221;BME280;63802;53.232;6.570;2023-03-23T02:37:36;99974.16;;;10.18;95.64
75221;BME280;63802;53.232;6.570;2023-03-23T02:40:11;99959.22;;;10.01;95.63
75221;BME280;63802;53.232;6.570;2023-03-23T02:42:40;99971.03;;;10.12;95.73
75221;BME280;63802;53.232;6.570;2023-03-23T02:45:08;99964.03;;;10.15;95.63
75221;BME280;63802;53.232;6.570;2023-03-23T02:47:37;99950.72;;;10.09;95.28
75221;BME280;63802;53.232;6.570;2023-03-23T02:50:06;99951.59;;;10.17;95.14
75221;BME280;63802;53.232;6.570;2023-03-23T02:52:34;99931.25;;;10.11;95.06
75221;BME280;63802;53.232;6.570;2023-03-23T02:55:02;99926.22;;;10.13;95.01
75221;BME280;63802;53.232;6.570;2023-03-23T02:57:30;99943.03;;;10.22;94.84
75221;BME280;63802;53.232;6.570;2023-03-23T02:59:57;99948.47;;;10.22;94.62
75221;BME280;63802;53.232;6.570;2023-03-23T03:02:32;99923.50;;;10.13;94.45
75221;BME280;63802;53.232;6.570;2023-03-23T03:05:11;99952.81;;;10.27;94.31
75221;BME280;63802;53.232;6.570;2023-03-23T03:11:11;99917.97;;;10.06;94.04
75221;BME280;63802;53.232;6.570;2023-03-23T03:13:53;99925.00;;;10.07;93.99
75221;BME280;63802;53.232;6.570;2023-03-23T03:19:14;99902.78;;;10.01;93.95
75221;BME280;63802;53.232;6.570;2023-03-23T03:21:44;99888.28;;;9.87;93.99
75221;BME280;63802;53.232;6.570;2023-03-23T03:24:15;99907.91;;;10.10;93.74
75221;BME280;63802;53.232;6.570;2023-03-23T03:26:45;99884.41;;;9.91;93.42
75221;BME280;63802;53.232;6.570;2023-03-23T03:29:14;99883.69;;;9.98;93.30
75221;BME280;63802;53.232;6.570;2023-03-23T03:31:42;99918.47;;;10.22;93.51
75221;BME280;63802;53.232;6.570;2023-03-23T03:34:15;99890.03;;;10.16;93.04
75221;BME280;63802;53.232;6.570;2023-03-23T03:36:43;99887.25;;;10.09;93.23
75221;BME280;63802;53.232;6.570;2023-03-23T03:39:12;99911.09;;;10.19;93.15
75221;BME280;63802;53.232;6.570;2023-03-23T03:41:38;99883.28;;;9.96;92.84
75221;BME280;63802;53.232;6.570;2023-03-23T03:44:05;99884.06;;;9.96;93.27
75221;BME280;63802;53.232;6.570;2023-03-23T03:46:32;99917.31;;;10.16;92.98
75221;BME280;63802;53.232;6.570;2023-03-23T03:48:58;99925.88;;;10.15;92.81
75221;BME280;63802;53.232;6.570;2023-03-23T03:51:27;99930.19;;;10.23;92.81
75221;BME280;63802;53.232;6.570;2023-03-23T03:53:53;99905.91;;;10.03;92.63
75221;BME280;63802;53.232;6.570;2023-03-23T03:56:19;99921.06;;;10.01;93.01
75221;BME280;63802;53.232;6.570;2023-03-23T03:58:45;99921.06;;;10.01;93.28
75221;BME280;63802;53.232;6.570;2023-03-23T04:01:14;99917.91;;;9.92;93.54
75221;BME280;63802;53.232;6.570;2023-03-23T04:03:40;99928.81;;;9.92;93.54
75221;BME280;63802;53.232;6.570;2023-03-23T04:06:07;99895.97;;;9.74;93.66
75221;BME280;63802;53.232;6.570;2023-03-23T04:08:34;99922.88;;;9.76;94.07
75221;BME280;63802;53.232;6.570;2023-03-23T04:11:00;99892.75;;;9.55;93.84
75221;BME280;63802;53.232;6.570;2023-03-23T04:13:26;99908.31;;;9.58;94.49
75221;BME280;63802;53.232;6.570;2023-03-23T04:15:52;99920.00;;;9.58;94.53
75221;BME280;63802;53.232;6.570;2023-03-23T04:18:18;99901.28;;;9.50;94.54
75221;BME280;63802;53.232;6.570;2023-03-23T04:20:45;99905.88;;;9.42;94.68
75221;BME280;63802;53.232;6.570;2023-03-23T04:23:15;99901.09;;;9.28;94.53
75221;BME280;63802;53.232;6.570;2023-03-23T04:25:49;99877.91;;;9.01;94.75
75221;BME280;63802;53.232;6.570;2023-03-23T04:28:16;99926.75;;;9.27;94.73
75221;BME280;63802;53.232;6.570;2023-03-23T04:30:44;99913.41;;;9.15;94.81
75221;BME280;63802;53.232;6.570;2023-03-23T04:33:14;99905.50;;;9.00;95.04
75221;BME280;63802;53.232;6.570;2023-03-23T04:35:41;99933.13;;;9.05;95.23
75221;BME280;63802;53.232;6.570;2023-03-23T04:38:07;99960.22;;;9.31;95.49
75221;BME280;63802;53.232;6.570;2023-03-23T04:40:37;99946.94;;;9.26;95.14
75221;BME280;63802;53.232;6.570;2023-03-23T04:43:04;99939.97;;;9.25;95.44
75221;BME280;63802;53.232;6.570;2023-03-23T04:45:31;99913.00;;;9.13;94.94
75221;BME280;63802;53.232;6.570;2023-03-23T04:47:57;99910.56;;;9.05;94.67
75221;BME280;63802;53.232;6.570;2023-03-23T04:50:24;99934.38;;;9.11;95.13
75221;BME280;63802;53.232;6.570;2023-03-23T04:52:51;99939.09;;;9.18;95.32
75221;BME280;63802;53.232;6.570;2023-03-23T04:55:19;99920.25;;;8.99;95.26
75221;BME280;63802;53.232;6.570;2023-03-23T04:57:45;99909.25;;;8.88;95.20
75221;BME280;63802;53.232;6.570;2023-03-23T05:00:11;99901.41;;;8.83;95.35
75221;BME280;63802;53.232;6.570;2023-03-23T05:02:39;99942.31;;;8.90;95.12
75221;BME280;63802;53.232;6.570;2023-03-23T05:05:07;99920.06;;;8.81;95.17
75221;BME280;63802;53.232;6.570;2023-03-23T05:07:32;99952.13;;;8.98;95.47
75221;BME280;63802;53.232;6.570;2023-03-23T05:09:58;99955.22;;;8.97;95.22
75221;BME280;63802;53.232;6.570;2023-03-23T05:12:24;99952.81;;;8.92;94.97
75221;BME280;63802;53.232;6.570;2023-03-23T05:14:50;99954.44;;;8.96;95.01
75221;BME280;63802;53.232;6.570;2023-03-23T05:17:15;99933.41;;;8.93;95.27
75221;BME280;63802;53.232;6.570;2023-03-23T05:19:45;99942.81;;;8.99;94.97
75221;BME280;63802;53.232;6.570;2023-03-23T05:22:14;99941.22;;;8.98;95.40
75221;BME280;63802;53.232;6.570;2023-03-23T05:24:40;99941.13;;;8.88;95.09
75221;BME280;63802;53.232;6.570;2023-03-23T05:27:06;99935.72;;;8.91;95.13
75221;BME280;63802;53.232;6.570;2023-03-23T05:29:34;99954.19;;;9.12;95.17
75221;BME280;63802;53.232;6.570;2023-03-23T05:32:01;99972.22;;;9.23;95.48
75221;BME280;63802;53.232;6.570;2023-03-23T05:34:27;99959.81;;;9.26;95.25
75221;BME280;63802;53.232;6.570;2023-03-23T05:36:55;99953.16;;;9.23;95.24
75221;BME280;63802;53.232;6.570;2023-03-23T05:39:22;99967.97;;;9.26;95.56
75221;BME280;63802;53.232;6.570;2023-03-23T05:41:48;99993.75;;;9.39;95.41
75221;BME280;63802;53.232;6.570;2023-03-23T05:44:13;99987.94;;;9.40;95.37
75221;BME280;63802;53.232;6.570;2023-03-23T05:46:43;99987.50;;;9.38;95.30
75221;BME280;63802;53.232;6.570;2023-03-23T05:49:08;99986.78;;;9.41;95.00
75221;BME280;63802;53.232;6.570;2023-03-23T05:51:34;99975.00;;;9.30;94.96
75221;BME280;63802;53.232;6.570;2023-03-23T05:54:00;99987.44;;;9.31;95.14
75221;BME280;63802;53.232;6.570;2023-03-23T05:56:25;100001.03;;;9.28;95.33
75221;BME280;63802;53.232;6.570;2023-03-23T05:58:51;99987.38;;;9.24;95.01
75221;BME280;63802;53.232;6.570;2023-03-23T06:01:17;99981.19;;;9.27;94.97
75221;BME280;63802;53.232;6.570;2023-03-23T06:03:43;99970.50;;;9.08;94.74
75221;BME280;63802;53.232;6.570;2023-03-23T06:06:12;99995.13;;;9.22;95.00
75221;BME280;63802;53.232;6.570;2023-03-23T06:08:38;100006.44;;;9.24;94.91
75221;BME280;63802;53.232;6.570;2023-03-23T06:11:04;99998.19;;;9.17;94.78
75221;BME280;63802;53.232;6.570;2023-03-23T06:13:30;100004.03;;;9.19;94.80
75221;BME280;63802;53.232;6.570;2023-03-23T06:15:56;99997.84;;;9.19;94.67
75221;BME280;63802;53.232;6.570;2023-03-23T06:18:25;100016.66;;;9.34;94.33
75221;BME280;63802;53.232;6.570;2023-03-23T06:20:51;99995.13;;;9.22;94.49
75221;BME280;63802;53.232;6.570;2023-03-23T06:23:18;100019.44;;;9.38;94.09
75221;BME280;63802;53.232;6.570;2023-03-23T06:25:44;100015.88;;;9.34;94.37
75221;BME280;63802;53.232;6.570;2023-03-23T06:28:10;100017.78;;;9.33;94.13
75221;BME280;63802;53.232;6.570;2023-03-23T06:30:36;100031.06;;;9.38;94.15
75221;BME280;63802;53.232;6.570;2023-03-23T06:33:02;100039.63;;;9.37;93.97
75221;BME280;63802;53.232;6.570;2023-03-23T06:35:31;100020.88;;;9.28;94.08
75221;BME280;63802;53.232;6.570;2023-03-23T06:37:57;100039.25;;;9.38;93.63
75221;BME280;63802;53.232;6.570;2023-03-23T06:40:26;100049.81;;;9.43;93.40
75221;BME280;63802;53.232;6.570;2023-03-23T06:42:54;100035.22;;;9.25;93.39
75221;BME280;63802;53.232;6.570;2023-03-23T06:45:19;100055.81;;;9.23;92.72
75221;BME280;63802;53.232;6.570;2023-03-23T06:47:45;100043.31;;;9.18;92.37
75221;BME280;63802;53.232;6.570;2023-03-23T06:50:15;100028.63;;;8.93;92.31
75221;BME280;63802;53.232;6.570;2023-03-23T06:52:40;100063.34;;;9.03;92.21
75221;BME280;63802;53.232;6.570;2023-03-23T06:55:07;100053.03;;;8.86;92.05
75221;BME280;63802;53.232;6.570;2023-03-23T06:57:33;100061.28;;;8.93;91.82
75221;BME280;63802;53.232;6.570;2023-03-23T06:59:58;100075.97;;;8.85;91.96
75221;BME280;63802;53.232;6.570;2023-03-23T07:02:24;100078.22;;;8.83;90.82
75221;BME280;63802;53.232;6.570;2023-03-23T07:04:51;100079.31;;;8.75;91.00
75221;BME280;63802;53.232;6.570;2023-03-23T07:07:16;100079.72;;;8.77;90.08
75221;BME280;63802;53.232;6.570;2023-03-23T07:09:44;100085.16;;;8.77;89.52
75221;BME280;63802;53.232;6.570;2023-03-23T07:12:10;100092.59;;;8.80;89.12
75221;BME280;63802;53.232;6.570;2023-03-23T07:14:35;100065.25;;;8.69;88.85
75221;BME280;63802;53.232;6.570;2023-03-23T07:17:02;100076.28;;;8.80;89.14
75221;BME280;63802;53.232;6.570;2023-03-23T07:19:28;100090.75;;;8.88;88.93
75221;BME280;63802;53.232;6.570;2023-03-23T07:21:54;100065.72;;;8.75;89.44
75221;BME280;63802;53.232;6.570;2023-03-23T07:24:19;100093.91;;;8.93;89.69
75221;BME280;63802;53.232;6.570;2023-03-23T07:26:45;100079.59;;;8.96;89.75
75221;BME280;63802;53.232;6.570;2023-03-23T07:29:11;100100.53;;;8.92;89.89
75221;BME280;63802;53.232;6.570;2023-03-23T07:31:36;100089.22;;;8.90;90.24
75221;BME280;63802;53.232;6.570;2023-03-23T07:34:02;100098.94;;;8.91;90.23
75221;BME280;63802;53.232;6.570;2023-03-23T07:36:29;100098.22;;;8.94;90.86
75221;BME280;63802;53.232;6.570;2023-03-23T07:38:54;100088.25;;;9.05;91.23
75221;BME280;63802;53.232;6.570;2023-03-23T07:41:20;100094.53;;;9.42;91.33
75221;BME280;63802;53.232;6.570;2023-03-23T07:43:46;100098.91;;;9.51;91.26
75221;BME280;63802;53.232;6.570;2023-03-23T07:46:13;100090.38;;;9.52;91.06
75221;BME280;63802;53.232;6.570;2023-03-23T07:48:39;100096.13;;;9.84;91.30
75221;BME280;63802;53.232;6.570;2023-03-23T07:51:05;100096.91;;;9.84;91.26
75221;BME280;63802;53.232;6.570;2023-03-23T07:53:33;100107.00;;;9.84;91.03
75221;BME280;63802;53.232;6.570;2023-03-23T07:55:59;100113.97;;;9.78;91.03
75221;BME280;63802;53.232;6.570;2023-03-23T07:58:26;100110.50;;;9.81;90.71
75221;BME280;63802;53.232;6.570;2023-03-23T08:00:53;100109.72;;;9.80;90.91
75221;BME280;63802;53.232;6.570;2023-03-23T08:03:20;100118.00;;;9.91;90.90
75221;BME280;63802;53.232;6.570;2023-03-23T08:05:45;100096.88;;;9.81;90.94
75221;BME280;63802;53.232;6.570;2023-03-23T08:08:11;100119.97;;;9.94;90.74
75221;BME280;63802;53.232;6.570;2023-03-23T08:10:37;100129.72;;;9.95;90.71
75221;BME280;63802;53.232;6.570;2023-03-23T08:13:03;100142.16;;;9.96;90.71
75221;BME280;63802;53.232;6.570;2023-03-23T08:15:29;100125.81;;;9.92;90.37
75221;BME280;63802;53.232;6.570;2023-03-23T08:17:55;100126.53;;;9.89;90.65
75221;BME280;63802;53.232;6.570;2023-03-23T08:20:21;100136.78;;;10.03;90.69
75221;BME280;63802;53.232;6.570;2023-03-23T08:22:54;100138.53;;;10.18;90.51
75221;BME280;63802;53.232;6.570;2023-03-23T08:25:21;100125.34;;;10.27;89.99
75221;BME280;63802;53.232;6.570;2023-03-23T08:27:51;100108.91;;;10.17;89.40
75221;BME280;63802;53.232;6.570;2023-03-23T08:30:20;100121.41;;;10.21;89.00
75221;BME280;63802;53.232;6.570;2023-03-23T08:32:48;100122.22;;;10.25;88.98
75221;BME280;63802;53.232;6.570;2023-03-23T08:35:15;100128.81;;;10.21;88.81
75221;BME280;63802;53.232;6.570;2023-03-23T08:37:42;100136.13;;;10.13;88.54
75221;BME280;63802;53.232;6.570;2023-03-23T08:40:09;100157.31;;;10.30;88.71
75221;BME280;63802;53.232;6.570;2023-03-23T08:42:37;100146.06;;;10.35;88.55
75221;BME280;63802;53.232;6.570;2023-03-23T08:45:06;100156.00;;;10.57;88.51
75221;BME280;63802;53.232;6.570;2023-03-23T08:47:34;100155.16;;;10.53;88.03
75221;BME280;63802;53.232;6.570;2023-03-23T08:50:00;100162.19;;;10.54;88.19
75221;BME280;63802;53.232;6.570;2023-03-23T08:52:32;100163.78;;;10.55;87.74
75221;BME280;63802;53.232;6.570;2023-03-23T08:54:58;100144.69;;;10.55;88.17
75221;BME280;63802;53.232;6.570;2023-03-23T08:57:26;100162.00;;;10.81;87.76
75221;BME280;63802;53.232;6.570;2023-03-23T08:59:52;100153.09;;;10.91;87.69
75221;BME280;63802;53.232;6.570;2023-03-23T09:02:20;100114.06;;;10.80;87.17
75221;BME280;63802;53.232;6.570;2023-03-23T09:04:45;100127.28;;;10.74;86.71
75221;BME280;63802;53.232;6.570;2023-03-23T09:07:11;100152.34;;;10.94;86.51
75221;BME280;63802;53.232;6.570;2023-03-23T09:09:39;100153.84;;;10.88;86.42
75221;BME280;63802;53.232;6.570;2023-03-23T09:12:06;100159.34;;;10.95;86.20
75221;BME280;63802;53.232;6.570;2023-03-23T09:14:32;100152.31;;;10.90;85.90
75221;BME280;63802;53.232;6.570;2023-03-23T09:16:57;100180.44;;;10.98;85.70
75221;BME280;63802;53.232;6.570;2023-03-23T09:19:23;100149.84;;;10.67;85.51
75221;BME280;63802;53.232;6.570;2023-03-23T09:21:49;100171.06;;;10.92;85.63
75221;BME280;63802;53.232;6.570;2023-03-23T09:24:15;100173.59;;;11.25;85.29
75221;BME280;63802;53.232;6.570;2023-03-23T09:26:41;100171.25;;;11.27;84.72
75221;BME280;63802;53.232;6.570;2023-03-23T09:29:07;100173.94;;;11.20;83.98
75221;BME280;63802;53.232;6.570;2023-03-23T09:31:33;100174.66;;;11.10;83.79
75221;BME280;63802;53.232;6.570;2023-03-23T09:34:02;100164.00;;;10.87;82.98
75221;BME280;63802;53.232;6.570;2023-03-23T09:36:29;100182.69;;;10.82;82.83
75221;BME280;63802;53.232;6.570;2023-03-23T09:38:56;100191.16;;;10.69;83.10
75221;BME280;63802;53.232;6.570;2023-03-23T09:41:54;100188.75;;;10.61;82.20
75221;BME280;63802;53.232;6.570;2023-03-23T09:47:38;100199.47;;;10.40;81.86
75221;BME280;63802;53.232;6.570;2023-03-23T09:50:12;100199.47;;;10.36;81.83
75221;BME280;63802;53.232;6.570;2023-03-23T09:52:48;100164.22;;;10.17;81.15
75221;BME280;63802;53.232;6.570;2023-03-23T09:55:17;100177.25;;;10.85;81.25
75221;BME280;63802;53.232;6.570;2023-03-23T10:00:53;100183.84;;;11.49;80.16
75221;BME280;63802;53.232;6.570;2023-03-23T10:03:31;100156.66;;;11.88;79.83
75221;BME280;63802;53.232;6.570;2023-03-23T10:06:00;100195.03;;;12.41;78.32
75221;BME280;63802;53.232;6.570;2023-03-23T10:08:31;100188.78;;;12.79;76.80
75221;BME280;63802;53.232;6.570;2023-03-23T10:11:28;100197.38;;;13.09;74.52
75221;BME280;63802;53.232;6.570;2023-03-23T10:22:37;100150.41;;;13.14;69.49
75221;BME280;63802;53.232;6.570;2023-03-23T10:28:18;100218.75;;;13.64;68.39
75221;BME280;63802;53.232;6.570;2023-03-23T10:30:53;100173.84;;;13.29;68.90
75221;BME280;63802;53.232;6.570;2023-03-23T10:36:10;100171.19;;;12.84;67.86
75221;BME280;63802;53.232;6.570;2023-03-23T10:39:10;100219.66;;;13.25;68.58
75221;BME280;63802;53.232;6.570;2023-03-23T10:41:52;100211.44;;;13.04;69.08
75221;BME280;63802;53.232;6.570;2023-03-23T10:44:41;100178.63;;;12.37;68.38
75221;BME280;63802;53.232;6.570;2023-03-23T10:47:18;100200.13;;;12.32;69.84
75221;BME280;63802;53.232;6.570;2023-03-23T10:52:42;100226.25;;;12.15;70.70
75221;BME280;63802;53.232;6.570;2023-03-23T10:55:19;100208.31;;;12.25;70.79
75221;BME280;63802;53.232;6.570;2023-03-23T10:58:12;100235.72;;;12.77;71.13
75221;BME280;63802;53.232;6.570;2023-03-23T11:00:46;100215.38;;;12.54;71.16
75221;BME280;63802;53.232;6.570;2023-03-23T11:05:43;100244.66;;;12.36;72.18
75221;BME280;63802;53.232;6.570;2023-03-23T11:08:32;100240.38;;;12.35;72.38
75221;BME280;63802;53.232;6.570;2023-03-23T11:11:53;100209.44;;;11.99;72.40
75221;BME280;63802;53.232;6.570;2023-03-23T11:15:03;100201.94;;;11.85;72.74
75221;BME280;63802;53.232;6.570;2023-03-23T11:17:40;100226.16;;;11.83;73.34
75221;BME280;63802;53.232;6.570;2023-03-23T11:20:22;100215.25;;;11.90;73.40
75221;BME280;63802;53.232;6.570;2023-03-23T11:23:00;100216.94;;;13.04;73.85
75221;BME280;63802;53.232;6.570;2023-03-23T11:25:49;100190.84;;;13.83;71.51
75221;BME280;63802;53.232;6.570;2023-03-23T11:29:32;100217.66;;;14.30;69.17
75221;BME280;63802;53.232;6.570;2023-03-23T11:32:05;100193.22;;;13.84;69.07
75221;BME280;63802;53.232;6.570;2023-03-23T11:34:41;100215.38;;;14.11;67.83
75221;BME280;63802;53.232;6.570;2023-03-23T11:37:32;100236.25;;;13.94;68.24
75221;BME280;63802;53.232;6.570;2023-03-23T11:42:57;100255.25;;;13.43;68.37
75221;BME280;63802;53.232;6.570;2023-03-23T11:45:47;100216.47;;;13.48;68.85
75221;BME280;63802;53.232;6.570;2023-03-23T11:48:42;100244.56;;;14.56;67.51
75221;BME280;63802;53.232;6.570;2023-03-23T11:51:16;100231.63;;;14.50;65.88
75221;BME280;63802;53.232;6.570;2023-03-23T11:54:09;100263.38;;;14.54;63.96
75221;BME280;63802;53.232;6.570;2023-03-23T11:57:01;100256.84;;;14.34;62.60
75221;BME280;63802;53.232;6.570;2023-03-23T11:59:28;100254.31;;;13.88;64.00
75221;BME280;63802;53.232;6.570;2023-03-23T12:02:32;100233.84;;;14.69;63.97
75221;BME280;63802;53.232;6.570;2023-03-23T12:07:55;100259.88;;;15.80;60.64
75221;BME280;63802;53.232;6.570;2023-03-23T12:10:28;100244.28;;;16.30;60.12
75221;BME280;63802;53.232;6.570;2023-03-23T12:19:16;100265.09;;;16.04;55.88
75221;BME280;63802;53.232;6.570;2023-03-23T12:22:16;100257.16;;;16.67;55.83
75221;BME280;63802;53.232;6.570;2023-03-23T12:27:40;100234.66;;;16.42;55.59
75221;BME280;63802;53.232;6.570;2023-03-23T12:33:00;100253.53;;;16.17;54.77
75221;BME280;63802;53.232;6.570;2023-03-23T12:35:45;100274.31;;;15.57;57.00
75221;BME280;63802;53.232;6.570;2023-03-23T12:38:28;100232.06;;;15.37;57.12
75221;BME280;63802;53.232;6.570;2023-03-23T12:43:48;100275.13;;;14.58;57.34
75221;BME280;63802;53.232;6.570;2023-03-23T12:46:28;100283.06;;;14.42;58.75
75221;BME280;63802;53.232;6.570;2023-03-23T12:51:40;100274.63;;;14.74;58.33
75221;BME280;63802;53.232;6.570;2023-03-23T12:54:42;100280.69;;;14.48;58.40
75221;BME280;63802;53.232;6.570;2023-03-23T12:57:36;100251.91;;;14.01;59.50
75221;BME280;63802;53.232;6.570;2023-03-23T13:00:33;100281.72;;;13.92;60.23
75221;BME280;63802;53.232;6.570;2023-03-23T13:08:37;100220.81;;;13.38;60.34
75221;BME280;63802;53.232;6.570;2023-03-23T13:11:45;100242.94;;;13.90;59.90
75221;BME280;63802;53.232;6.570;2023-03-23T13:20:31;100207.50;;;13.30;59.79
75221;BME280;63802;53.232;6.570;2023-03-23T13:26:14;100259.09;;;13.67;61.49
75221;BME280;63802;53.232;6.570;2023-03-23T13:29:15;100240.31;;;13.62;61.89
75221;BME280;63802;53.232;6.570;2023-03-23T13:31:46;100188.72;;;13.32;62.73
75221;BME280;63802;53.232;6.570;2023-03-23T13:34:25;100258.75;;;13.51;63.47
75221;BME280;63802;53.232;6.570;2023-03-23T13:37:06;100214.56;;;13.20;64.53
75221;BME280;63802;53.232;6.570;2023-03-23T13:39:54;100237.25;;;13.38;64.42
75221;BME280;63802;53.232;6.570;2023-03-23T13:42:29;100262.66;;;13.57;64.85
75221;BME280;63802;53.232;6.570;2023-03-23T13:48:23;100266.22;;;13.39;66.37
75221;BME280;63802;53.232;6.570;2023-03-23T13:53:24;100233.72;;;13.34;66.06
75221;BME280;63802;53.232;6.570;2023-03-23T13:56:03;100223.16;;;13.33;65.26
75221;BME280;63802;53.232;6.570;2023-03-23T13:58:51;100261.81;;;13.74;64.99
75221;BME280;63802;53.232;6.570;2023-03-23T14:01:41;100235.19;;;13.71;63.36
75221;BME280;63802;53.232;6.570;2023-03-23T14:04:13;100235.53;;;13.83;63.63
75221;BME280;63802;53.232;6.570;2023-03-23T14:06:41;100265.97;;;14.10;62.65
75221;BME280;63802;53.232;6.570;2023-03-23T14:09:19;100264.09;;;14.65;62.59
75221;BME280;63802;53.232;6.570;2023-03-23T14:12:00;100239.13;;;14.42;61.19
75221;BME280;63802;53.232;6.570;2023-03-23T14:14:43;100259.66;;;14.17;61.96
75221;BME280;63802;53.232;6.570;2023-03-23T14:17:18;100270.53;;;14.38;62.25
75221;BME280;63802;53.232;6.570;2023-03-23T14:19:48;100251.78;;;14.22;62.23
75221;BME280;63802;53.232;6.570;2023-03-23T14:22:52;100231.19;;;14.58;61.96
75221;BME280;63802;53.232;6.570;2023-03-23T14:25:30;100244.56;;;14.56;61.16
75221;BME280;63802;53.232;6.570;2023-03-23T14:27:57;100220.13;;;14.07;61.52
75221;BME280;63802;53.232;6.570;2023-03-23T14:30:36;100216.38;;;13.76;62.32
75221;BME280;63802;53.232;6.570;2023-03-23T14:33:04;100270.72;;;14.02;62.98
75221;BME280;63802;53.232;6.570;2023-03-23T14:35:36;100263.22;;;14.10;63.37
75221;BME280;63802;53.232;6.570;2023-03-23T14:38:21;100256.13;;;14.16;63.42
75221;BME280;63802;53.232;6.570;2023-03-23T14:40:52;100243.16;;;14.24;63.79
75221;BME280;63802;53.232;6.570;2023-03-23T14:43:20;100253.75;;;14.22;63.46
75221;BME280;63802;53.232;6.570;2023-03-23T14:45:59;100274.50;;;14.37;64.32
75221;BME280;63802;53.232;6.570;2023-03-23T14:48:26;100214.91;;;14.27;63.04
75221;BME280;63802;53.232;6.570;2023-03-23T14:50:58;100257.84;;;14.61;62.65
75221;BME280;63802;53.232;6.570;2023-03-23T14:53:39;100207.09;;;14.25;62.50
75221;BME280;63802;53.232;6.570;2023-03-23T14:56:31;100259.41;;;14.66;62.58